sensor_id;sensor_type;location;lat;lon;timestamp;P1;durP1;ratioP1;P2;durP2;ratioP2
81801;SDS011;71199;52.490;5.448;2023-07-02T00:02:05;19.52;;;5.80;;
81801;SDS011;71199;52.490;5.448;2023-07-02T00:04:31;15.15;;;5.25;;
81801;SDS011;71199;52.490;5.448;2023-07-02T00:06:56;19.13;;;5.27;;
81801;SDS011;71199;52.490;5.448;2023-07-02T00:09:21;19.20;;;6.03;;
81801;SDS011;71199;52.490;5.448;2023-07-02T00:11:47;15.87;;;5.43;;
81801;SDS011;71199;52.490;5.448;2023-07-02T00:14:12;13.40;;;5.88;;
81801;SDS011;71199;52.490;5.448;2023-07-02T00:16:42;16.88;;;5.97;;
81801;SDS011;71199;52.490;5.448;2023-07-02T00:19:09;13.90;;;5.22;;
81801;SDS011;71199;52.490;5.448;2023-07-02T00:21:34;18.38;;;6.07;;
81801;SDS011;71199;52.490;5.448;2023-07-02T00:24:02;14.70;;;5.47;;
81801;SDS011;71199;52.490;5.448;2023-07-02T00:26:28;24.77;;;6.25;;
81801;SDS011;71199;52.490;5.448;2023-07-02T00:28:54;16.80;;;5.60;;
81801;SDS011;71199;52.490;5.448;2023-07-02T00:31:20;21.85;;;6.35;;
81801;SDS011;71199;52.490;5.448;2023-07-02T00:33:46;16.50;;;5.90;;
81801;SDS011;71199;52.490;5.448;2023-07-02T00:36:14;18.15;;;5.60;;
81801;SDS011;71199;52.490;5.448;2023-07-02T00:38:46;18.58;;;5.93;;
81801;SDS011;71199;52.490;5.448;2023-07-02T00:41:14;19.42;;;6.15;;
81801;SDS011;71199;52.490;5.448;2023-07-02T00:43:40;14.05;;;5.80;;
81801;SDS011;71199;52.490;5.448;2023-07-02T00:46:18;21.02;;;5.90;;
81801;SDS011;71199;52.490;5.448;2023-07-02T00:48:51;20.83;;;6.97;;
81801;SDS011;71199;52.490;5.448;2023-07-02T00:51:18;13.90;;;5.97;;
81801;SDS011;71199;52.490;5.448;2023-07-02T00:53:48;19.17;;;6.22;;
81801;SDS011;71199;52.490;5.448;2023-07-02T00:56:15;21.35;;;5.68;;
81801;SDS011;71199;52.490;5.448;2023-07-02T00:58:41;16.27;;;6.05;;
81801;SDS011;71199;52.490;5.448;2023-07-02T01:01:20;18.85;;;5.93;;
81801;SDS011;71199;52.490;5.448;2023-07-02T01:03:51;13.65;;;6.30;;
81801;SDS011;71199;52.490;5.448;2023-07-02T01:06:19;15.20;;;5.25;;
81801;SDS011;71199;52.490;5.448;2023-07-02T01:08:53;20.02;;;6.93;;
81801;SDS011;71199;52.490;5.448;2023-07-02T01:11:19;25.13;;;6.32;;
81801;SDS011;71199;52.490;5.448;2023-07-02T01:13:49;18.42;;;6.18;;
81801;SDS011;71199;52.490;5.448;2023-07-02T01:16:16;19.38;;;5.65;;
81801;SDS011;71199;52.490;5.448;2023-07-02T01:18:42;25.77;;;6.72;;
81801;SDS011;71199;52.490;5.448;2023-07-02T01:21:08;18.92;;;6.20;;
81801;SDS011;71199;52.490;5.448;2023-07-02T01:23:34;19.27;;;6.32;;
81801;SDS011;71199;52.490;5.448;2023-07-02T01:25:59;13.60;;;5.60;;
81801;SDS011;71199;52.490;5.448;2023-07-02T01:28:33;21.98;;;5.78;;
81801;SDS011;71199;52.490;5.448;2023-07-02T01:31:00;13.35;;;5.97;;
81801;SDS011;71199;52.490;5.448;2023-07-02T01:33:26;21.50;;;6.72;;
81801;SDS011;71199;52.490;5.448;2023-07-02T01:35:51;17.87;;;5.73;;
81801;SDS011;71199;52.490;5.448;2023-07-02T01:38:16;22.33;;;5.60;;
81801;SDS011;71199;52.490;5.448;2023-07-02T01:40:42;21.13;;;6.47;;
81801;SDS011;71199;52.490;5.448;2023-07-02T01:43:07;16.02;;;5.72;;
81801;SDS011;71199;52.490;5.448;2023-07-02T01:45:33;15.80;;;6.43;;
81801;SDS011;71199;52.490;5.448;2023-07-02T01:47:58;21.83;;;6.73;;
81801;SDS011;71199;52.490;5.448;2023-07-02T01:50:23;21.07;;;6.50;;
81801;SDS011;71199;52.490;5.448;2023-07-02T01:52:49;19.20;;;5.97;;
81801;SDS011;71199;52.490;5.448;2023-07-02T01:55:14;23.73;;;7.23;;
81801;SDS011;71199;52.490;5.448;2023-07-02T01:57:40;28.98;;;5.97;;
81801;SDS011;71199;52.490;5.448;2023-07-02T02:00:05;18.43;;;6.53;;
81801;SDS011;71199;52.490;5.448;2023-07-02T02:02:31;14.43;;;5.53;;
81801;SDS011;71199;52.490;5.448;2023-07-02T02:04:57;23.42;;;6.82;;
81801;SDS011;71199;52.490;5.448;2023-07-02T02:07:23;17.37;;;6.73;;
81801;SDS011;71199;52.490;5.448;2023-07-02T02:09:48;20.00;;;6.47;;
81801;SDS011;71199;52.490;5.448;2023-07-02T02:12:14;17.77;;;6.10;;
81801;SDS011;71199;52.490;5.448;2023-07-02T02:14:39;16.10;;;6.30;;
81801;SDS011;71199;52.490;5.448;2023-07-02T02:17:04;20.17;;;5.78;;
81801;SDS011;71199;52.490;5.448;2023-07-02T02:19:30;17.10;;;5.68;;
81801;SDS011;71199;52.490;5.448;2023-07-02T02:21:55;20.87;;;6.47;;
81801;SDS011;71199;52.490;5.448;2023-07-02T02:24:20;26.87;;;6.80;;
81801;SDS011;71199;52.490;5.448;2023-07-02T02:26:46;16.77;;;6.10;;
81801;SDS011;71199;52.490;5.448;2023-07-02T02:29:11;15.47;;;6.03;;
81801;SDS011;71199;52.490;5.448;2023-07-02T02:31:36;19.87;;;6.50;;
81801;SDS011;71199;52.490;5.448;2023-07-02T02:34:02;14.33;;;5.60;;
81801;SDS011;71199;52.490;5.448;2023-07-02T02:36:28;21.10;;;6.80;;
81801;SDS011;71199;52.490;5.448;2023-07-02T02:38:53;16.55;;;5.75;;
81801;SDS011;71199;52.490;5.448;2023-07-02T02:41:19;22.10;;;5.70;;
81801;SDS011;71199;52.490;5.448;2023-07-02T02:43:44;19.33;;;5.73;;
81801;SDS011;71199;52.490;5.448;2023-07-02T02:46:12;21.23;;;5.83;;
81801;SDS011;71199;52.490;5.448;2023-07-02T02:48:44;16.45;;;5.95;;
81801;SDS011;71199;52.490;5.448;2023-07-02T02:51:09;16.47;;;6.40;;
81801;SDS011;71199;52.490;5.448;2023-07-02T02:53:35;18.70;;;6.30;;
81801;SDS011;71199;52.490;5.448;2023-07-02T02:56:00;19.47;;;6.03;;
81801;SDS011;71199;52.490;5.448;2023-07-02T02:58:25;17.10;;;5.57;;
81801;SDS011;71199;52.490;5.448;2023-07-02T03:03:18;20.63;;;6.37;;
81801;SDS011;71199;52.490;5.448;2023-07-02T03:05:45;24.23;;;6.68;;
81801;SDS011;71199;52.490;5.448;2023-07-02T03:08:13;21.33;;;6.13;;
81801;SDS011;71199;52.490;5.448;2023-07-02T03:10:38;19.25;;;6.72;;
81801;SDS011;71199;52.490;5.448;2023-07-02T03:13:04;20.27;;;6.53;;
81801;SDS011;71199;52.490;5.448;2023-07-02T03:15:29;17.73;;;6.10;;
81801;SDS011;71199;52.490;5.448;2023-07-02T03:17:55;17.08;;;6.53;;
81801;SDS011;71199;52.490;5.448;2023-07-02T03:20:21;21.70;;;5.82;;
81801;SDS011;71199;52.490;5.448;2023-07-02T03:22:46;21.80;;;6.63;;
81801;SDS011;71199;52.490;5.448;2023-07-02T03:25:12;19.97;;;6.30;;
81801;SDS011;71199;52.490;5.448;2023-07-02T03:27:37;17.98;;;5.55;;
81801;SDS011;71199;52.490;5.448;2023-07-02T03:30:03;25.85;;;6.35;;
81801;SDS011;71199;52.490;5.448;2023-07-02T03:32:29;21.40;;;6.63;;
81801;SDS011;71199;52.490;5.448;2023-07-02T03:34:55;25.77;;;7.28;;
81801;SDS011;71199;52.490;5.448;2023-07-02T03:37:20;18.03;;;6.63;;
81801;SDS011;71199;52.490;5.448;2023-07-02T03:39:45;21.63;;;6.40;;
81801;SDS011;71199;52.490;5.448;2023-07-02T03:42:11;27.42;;;7.28;;
81801;SDS011;71199;52.490;5.448;2023-07-02T03:44:36;22.45;;;6.63;;
81801;SDS011;71199;52.490;5.448;2023-07-02T03:47:02;21.47;;;6.77;;
81801;SDS011;71199;52.490;5.448;2023-07-02T03:49:27;26.52;;;6.40;;
81801;SDS011;71199;52.490;5.448;2023-07-02T03:51:54;18.70;;;6.55;;
81801;SDS011;71199;52.490;5.448;2023-07-02T03:54:19;19.98;;;6.68;;
81801;SDS011;71199;52.490;5.448;2023-07-02T03:56:45;22.37;;;6.17;;
81801;SDS011;71199;52.490;5.448;2023-07-02T03:59:10;28.10;;;7.10;;
81801;SDS011;71199;52.490;5.448;2023-07-02T04:01:35;13.80;;;7.23;;
81801;SDS011;71199;52.490;5.448;2023-07-02T04:04:01;21.17;;;7.07;;
81801;SDS011;71199;52.490;5.448;2023-07-02T04:06:26;19.67;;;6.43;;
81801;SDS011;71199;52.490;5.448;2023-07-02T04:08:51;18.17;;;6.15;;
81801;SDS011;71199;52.490;5.448;2023-07-02T04:11:17;16.73;;;6.15;;
81801;SDS011;71199;52.490;5.448;2023-07-02T04:13:42;21.77;;;7.32;;
81801;SDS011;71199;52.490;5.448;2023-07-02T04:16:08;18.33;;;6.40;;
81801;SDS011;71199;52.490;5.448;2023-07-02T04:18:33;23.10;;;7.47;;
81801;SDS011;71199;52.490;5.448;2023-07-02T04:20:58;25.08;;;7.43;;
81801;SDS011;71199;52.490;5.448;2023-07-02T04:23:24;22.90;;;6.82;;
81801;SDS011;71199;52.490;5.448;2023-07-02T04:25:50;22.70;;;6.75;;
81801;SDS011;71199;52.490;5.448;2023-07-02T04:28:15;23.35;;;6.88;;
81801;SDS011;71199;52.490;5.448;2023-07-02T04:30:41;17.90;;;6.40;;
81801;SDS011;71199;52.490;5.448;2023-07-02T04:33:07;25.38;;;8.10;;
81801;SDS011;71199;52.490;5.448;2023-07-02T04:35:32;25.85;;;6.75;;
81801;SDS011;71199;52.490;5.448;2023-07-02T04:37:59;19.45;;;6.82;;
81801;SDS011;71199;52.490;5.448;2023-07-02T04:40:25;29.95;;;6.85;;
81801;SDS011;71199;52.490;5.448;2023-07-02T04:42:51;18.00;;;6.05;;
81801;SDS011;71199;52.490;5.448;2023-07-02T04:45:23;23.15;;;6.22;;
81801;SDS011;71199;52.490;5.448;2023-07-02T04:47:50;20.08;;;7.40;;
81801;SDS011;71199;52.490;5.448;2023-07-02T04:50:16;26.58;;;7.00;;
81801;SDS011;71199;52.490;5.448;2023-07-02T04:52:42;19.88;;;6.85;;
81801;SDS011;71199;52.490;5.448;2023-07-02T04:55:07;25.70;;;6.23;;
81801;SDS011;71199;52.490;5.448;2023-07-02T04:57:33;22.63;;;6.88;;
81801;SDS011;71199;52.490;5.448;2023-07-02T04:59:58;16.73;;;5.75;;
81801;SDS011;71199;52.490;5.448;2023-07-02T05:02:24;16.83;;;5.75;;
81801;SDS011;71199;52.490;5.448;2023-07-02T05:04:49;21.23;;;6.00;;
81801;SDS011;71199;52.490;5.448;2023-07-02T05:07:18;24.75;;;6.20;;
81801;SDS011;71199;52.490;5.448;2023-07-02T05:09:43;21.73;;;6.75;;
81801;SDS011;71199;52.490;5.448;2023-07-02T05:12:09;28.52;;;6.68;;
81801;SDS011;71199;52.490;5.448;2023-07-02T05:14:34;22.20;;;5.78;;
81801;SDS011;71199;52.490;5.448;2023-07-02T05:16:59;17.70;;;5.93;;
81801;SDS011;71199;52.490;5.448;2023-07-02T05:19:25;17.33;;;6.18;;
81801;SDS011;71199;52.490;5.448;2023-07-02T05:21:50;22.63;;;7.00;;
81801;SDS011;71199;52.490;5.448;2023-07-02T05:24:16;21.20;;;6.27;;
81801;SDS011;71199;52.490;5.448;2023-07-02T05:26:41;20.13;;;5.80;;
81801;SDS011;71199;52.490;5.448;2023-07-02T05:29:07;22.80;;;6.13;;
81801;SDS011;71199;52.490;5.448;2023-07-02T05:31:32;17.00;;;6.05;;
81801;SDS011;71199;52.490;5.448;2023-07-02T05:33:59;17.70;;;5.72;;
81801;SDS011;71199;52.490;5.448;2023-07-02T05:36:24;20.73;;;6.25;;
81801;SDS011;71199;52.490;5.448;2023-07-02T05:38:50;23.15;;;6.53;;
81801;SDS011;71199;52.490;5.448;2023-07-02T05:41:18;22.38;;;5.85;;
81801;SDS011;71199;52.490;5.448;2023-07-02T05:43:44;21.50;;;6.28;;
81801;SDS011;71199;52.490;5.448;2023-07-02T05:46:10;14.93;;;5.68;;
81801;SDS011;71199;52.490;5.448;2023-07-02T05:48:35;17.25;;;5.82;;
81801;SDS011;71199;52.490;5.448;2023-07-02T05:51:01;16.90;;;5.63;;
81801;SDS011;71199;52.490;5.448;2023-07-02T05:53:27;15.73;;;5.65;;
81801;SDS011;71199;52.490;5.448;2023-07-02T05:55:52;16.67;;;6.07;;
81801;SDS011;71199;52.490;5.448;2023-07-02T05:58:18;21.63;;;5.73;;
81801;SDS011;71199;52.490;5.448;2023-07-02T06:00:44;15.65;;;5.82;;
81801;SDS011;71199;52.490;5.448;2023-07-02T06:03:14;14.15;;;5.13;;
81801;SDS011;71199;52.490;5.448;2023-07-02T06:05:44;16.33;;;5.53;;
81801;SDS011;71199;52.490;5.448;2023-07-02T06:08:11;16.20;;;5.95;;
81801;SDS011;71199;52.490;5.448;2023-07-02T06:10:36;15.82;;;5.15;;
81801;SDS011;71199;52.490;5.448;2023-07-02T06:13:02;18.73;;;5.67;;
81801;SDS011;71199;52.490;5.448;2023-07-02T06:15:27;15.60;;;5.53;;
81801;SDS011;71199;52.490;5.448;2023-07-02T06:17:53;17.13;;;5.67;;
81801;SDS011;71199;52.490;5.448;2023-07-02T06:20:18;11.13;;;5.03;;
81801;SDS011;71199;52.490;5.448;2023-07-02T06:22:43;14.30;;;5.13;;
81801;SDS011;71199;52.490;5.448;2023-07-02T06:25:10;15.10;;;5.53;;
81801;SDS011;71199;52.490;5.448;2023-07-02T06:27:35;19.97;;;5.03;;
81801;SDS011;71199;52.490;5.448;2023-07-02T06:30:00;18.80;;;5.60;;
81801;SDS011;71199;52.490;5.448;2023-07-02T06:32:26;12.88;;;4.72;;
81801;SDS011;71199;52.490;5.448;2023-07-02T06:34:51;17.50;;;5.38;;
81801;SDS011;71199;52.490;5.448;2023-07-02T06:37:17;13.10;;;5.25;;
81801;SDS011;71199;52.490;5.448;2023-07-02T06:39:42;18.85;;;5.05;;
81801;SDS011;71199;52.490;5.448;2023-07-02T06:42:07;16.80;;;5.30;;
81801;SDS011;71199;52.490;5.448;2023-07-02T06:44:33;15.30;;;5.32;;
81801;SDS011;71199;52.490;5.448;2023-07-02T06:46:58;17.88;;;5.25;;
81801;SDS011;71199;52.490;5.448;2023-07-02T06:49:24;17.55;;;5.13;;
81801;SDS011;71199;52.490;5.448;2023-07-02T06:51:49;20.53;;;5.47;;
81801;SDS011;71199;52.490;5.448;2023-07-02T06:54:14;16.27;;;5.00;;
81801;SDS011;71199;52.490;5.448;2023-07-02T06:56:40;25.50;;;5.07;;
81801;SDS011;71199;52.490;5.448;2023-07-02T06:59:05;12.75;;;4.97;;
81801;SDS011;71199;52.490;5.448;2023-07-02T07:01:30;16.10;;;5.20;;
81801;SDS011;71199;52.490;5.448;2023-07-02T07:03:59;13.20;;;4.60;;
81801;SDS011;71199;52.490;5.448;2023-07-02T07:06:25;14.25;;;5.28;;
81801;SDS011;71199;52.490;5.448;2023-07-02T07:08:53;15.52;;;4.93;;
81801;SDS011;71199;52.490;5.448;2023-07-02T07:11:21;14.05;;;4.78;;
81801;SDS011;71199;52.490;5.448;2023-07-02T07:13:46;14.90;;;4.55;;
81801;SDS011;71199;52.490;5.448;2023-07-02T07:16:12;12.03;;;4.07;;
81801;SDS011;71199;52.490;5.448;2023-07-02T07:18:37;15.98;;;4.95;;
81801;SDS011;71199;52.490;5.448;2023-07-02T07:21:03;14.57;;;4.88;;
81801;SDS011;71199;52.490;5.448;2023-07-02T07:23:28;10.43;;;3.80;;
81801;SDS011;71199;52.490;5.448;2023-07-02T07:26:05;13.97;;;4.17;;
81801;SDS011;71199;52.490;5.448;2023-07-02T07:28:31;9.40;;;4.30;;
81801;SDS011;71199;52.490;5.448;2023-07-02T07:30:56;13.45;;;4.57;;
81801;SDS011;71199;52.490;5.448;2023-07-02T07:33:22;18.05;;;5.32;;
81801;SDS011;71199;52.490;5.448;2023-07-02T07:35:47;12.68;;;4.38;;
81801;SDS011;71199;52.490;5.448;2023-07-02T07:38:13;12.95;;;4.63;;
81801;SDS011;71199;52.490;5.448;2023-07-02T07:40:39;14.93;;;4.50;;
81801;SDS011;71199;52.490;5.448;2023-07-02T07:43:05;12.15;;;4.40;;
81801;SDS011;71199;52.490;5.448;2023-07-02T07:45:30;11.38;;;5.13;;
81801;SDS011;71199;52.490;5.448;2023-07-02T07:47:56;15.45;;;4.95;;
81801;SDS011;71199;52.490;5.448;2023-07-02T07:50:21;11.60;;;4.82;;
81801;SDS011;71199;52.490;5.448;2023-07-02T07:52:47;13.48;;;4.95;;
81801;SDS011;71199;52.490;5.448;2023-07-02T07:55:13;12.65;;;4.60;;
81801;SDS011;71199;52.490;5.448;2023-07-02T07:57:38;8.77;;;4.28;;
81801;SDS011;71199;52.490;5.448;2023-07-02T08:00:04;12.77;;;4.22;;
81801;SDS011;71199;52.490;5.448;2023-07-02T08:02:36;11.02;;;4.32;;
81801;SDS011;71199;52.490;5.448;2023-07-02T08:05:02;13.13;;;4.22;;
81801;SDS011;71199;52.490;5.448;2023-07-02T08:07:28;13.88;;;5.00;;
81801;SDS011;71199;52.490;5.448;2023-07-02T08:09:53;15.73;;;4.72;;
81801;SDS011;71199;52.490;5.448;2023-07-02T08:12:19;12.68;;;4.43;;
81801;SDS011;71199;52.490;5.448;2023-07-02T08:14:45;13.20;;;4.68;;
81801;SDS011;71199;52.490;5.448;2023-07-02T08:17:11;16.10;;;5.38;;
81801;SDS011;71199;52.490;5.448;2023-07-02T08:19:39;16.27;;;5.10;;
81801;SDS011;71199;52.490;5.448;2023-07-02T08:22:05;14.63;;;5.30;;
81801;SDS011;71199;52.490;5.448;2023-07-02T08:24:30;13.32;;;4.55;;
81801;SDS011;71199;52.490;5.448;2023-07-02T08:26:56;16.85;;;5.55;;
81801;SDS011;71199;52.490;5.448;2023-07-02T08:29:23;15.23;;;5.13;;
81801;SDS011;71199;52.490;5.448;2023-07-02T08:31:48;16.60;;;5.55;;
81801;SDS011;71199;52.490;5.448;2023-07-02T08:34:14;13.68;;;5.15;;
81801;SDS011;71199;52.490;5.448;2023-07-02T08:36:39;9.45;;;4.65;;
81801;SDS011;71199;52.490;5.448;2023-07-02T08:39:04;15.43;;;4.97;;
81801;SDS011;71199;52.490;5.448;2023-07-02T08:41:30;12.93;;;5.32;;
81801;SDS011;71199;52.490;5.448;2023-07-02T08:43:56;16.55;;;5.07;;
81801;SDS011;71199;52.490;5.448;2023-07-02T08:46:24;13.50;;;5.28;;
81801;SDS011;71199;52.490;5.448;2023-07-02T08:48:49;14.77;;;5.28;;
81801;SDS011;71199;52.490;5.448;2023-07-02T08:51:15;13.10;;;4.47;;
81801;SDS011;71199;52.490;5.448;2023-07-02T08:53:40;12.97;;;4.40;;
81801;SDS011;71199;52.490;5.448;2023-07-02T08:56:09;14.82;;;5.00;;
81801;SDS011;71199;52.490;5.448;2023-07-02T08:58:34;10.50;;;3.77;;
81801;SDS011;71199;52.490;5.448;2023-07-02T09:03:35;13.60;;;4.20;;
81801;SDS011;71199;52.490;5.448;2023-07-02T09:06:07;10.70;;;4.13;;
81801;SDS011;71199;52.490;5.448;2023-07-02T09:08:34;19.48;;;4.60;;
81801;SDS011;71199;52.490;5.448;2023-07-02T09:11:13;12.60;;;4.03;;
81801;SDS011;71199;52.490;5.448;2023-07-02T09:13:46;10.50;;;3.53;;
81801;SDS011;71199;52.490;5.448;2023-07-02T09:19:07;9.75;;;3.40;;
81801;SDS011;71199;52.490;5.448;2023-07-02T09:24:16;9.70;;;3.60;;
81801;SDS011;71199;52.490;5.448;2023-07-02T09:26:47;10.20;;;3.78;;
81801;SDS011;71199;52.490;5.448;2023-07-02T09:29:19;11.50;;;3.58;;
81801;SDS011;71199;52.490;5.448;2023-07-02T09:31:57;11.23;;;3.70;;
81801;SDS011;71199;52.490;5.448;2023-07-02T09:34:30;10.18;;;3.35;;
81801;SDS011;71199;52.490;5.448;2023-07-02T09:39:29;11.95;;;4.18;;
81801;SDS011;71199;52.490;5.448;2023-07-02T09:41:59;11.23;;;4.18;;
81801;SDS011;71199;52.490;5.448;2023-07-02T09:44:29;12.68;;;4.43;;
81801;SDS011;71199;52.490;5.448;2023-07-02T09:47:00;13.35;;;4.30;;
81801;SDS011;71199;52.490;5.448;2023-07-02T09:49:31;14.02;;;3.88;;
81801;SDS011;71199;52.490;5.448;2023-07-02T09:51:59;11.50;;;4.57;;
81801;SDS011;71199;52.490;5.448;2023-07-02T09:54:26;13.77;;;3.78;;
81801;SDS011;71199;52.490;5.448;2023-07-02T09:59:18;12.25;;;3.30;;
81801;SDS011;71199;52.490;5.448;2023-07-02T10:01:44;10.40;;;3.75;;
81801;SDS011;71199;52.490;5.448;2023-07-02T10:04:13;9.27;;;4.07;;
81801;SDS011;71199;52.490;5.448;2023-07-02T10:09:15;10.20;;;3.95;;
81801;SDS011;71199;52.490;5.448;2023-07-02T10:11:41;10.88;;;3.80;;
81801;SDS011;71199;52.490;5.448;2023-07-02T10:14:07;8.55;;;3.92;;
81801;SDS011;71199;52.490;5.448;2023-07-02T10:16:32;10.80;;;3.17;;
81801;SDS011;71199;52.490;5.448;2023-07-02T10:19:12;9.18;;;3.65;;
81801;SDS011;71199;52.490;5.448;2023-07-02T10:21:38;10.30;;;3.50;;
81801;SDS011;71199;52.490;5.448;2023-07-02T10:24:10;13.07;;;3.97;;
81801;SDS011;71199;52.490;5.448;2023-07-02T10:26:36;14.02;;;3.83;;
81801;SDS011;71199;52.490;5.448;2023-07-02T10:29:01;12.55;;;3.75;;
81801;SDS011;71199;52.490;5.448;2023-07-02T10:31:27;13.60;;;4.05;;
81801;SDS011;71199;52.490;5.448;2023-07-02T10:33:53;10.23;;;3.88;;
81801;SDS011;71199;52.490;5.448;2023-07-02T10:36:22;10.57;;;4.28;;
81801;SDS011;71199;52.490;5.448;2023-07-02T10:38:49;11.77;;;3.88;;
81801;SDS011;71199;52.490;5.448;2023-07-02T10:41:25;9.27;;;3.60;;
81801;SDS011;71199;52.490;5.448;2023-07-02T10:46:29;11.32;;;4.00;;
81801;SDS011;71199;52.490;5.448;2023-07-02T10:48:55;13.80;;;3.50;;
81801;SDS011;71199;52.490;5.448;2023-07-02T10:51:21;12.13;;;3.45;;
81801;SDS011;71199;52.490;5.448;2023-07-02T10:53:59;9.63;;;3.50;;
81801;SDS011;71199;52.490;5.448;2023-07-02T10:56:28;9.70;;;3.22;;
81801;SDS011;71199;52.490;5.448;2023-07-02T10:58:56;6.00;;;2.83;;
81801;SDS011;71199;52.490;5.448;2023-07-02T11:01:26;9.90;;;3.90;;
81801;SDS011;71199;52.490;5.448;2023-07-02T11:06:25;12.13;;;3.42;;
81801;SDS011;71199;52.490;5.448;2023-07-02T11:08:52;8.00;;;3.15;;
81801;SDS011;71199;52.490;5.448;2023-07-02T11:11:19;16.13;;;4.63;;
81801;SDS011;71199;52.490;5.448;2023-07-02T11:13:47;10.35;;;3.85;;
81801;SDS011;71199;52.490;5.448;2023-07-02T11:16:20;12.70;;;3.58;;
81801;SDS011;71199;52.490;5.448;2023-07-02T11:18:53;12.98;;;3.95;;
81801;SDS011;71199;52.490;5.448;2023-07-02T11:21:25;9.23;;;4.00;;
81801;SDS011;71199;52.490;5.448;2023-07-02T11:23:50;12.13;;;3.65;;
81801;SDS011;71199;52.490;5.448;2023-07-02T11:26:34;15.25;;;4.22;;
81801;SDS011;71199;52.490;5.448;2023-07-02T11:29:03;10.98;;;3.60;;
81801;SDS011;71199;52.490;5.448;2023-07-02T11:31:28;11.43;;;3.72;;
81801;SDS011;71199;52.490;5.448;2023-07-02T11:33:54;10.48;;;4.05;;
81801;SDS011;71199;52.490;5.448;2023-07-02T11:36:20;9.43;;;3.67;;
81801;SDS011;71199;52.490;5.448;2023-07-02T11:38:48;9.48;;;3.60;;
81801;SDS011;71199;52.490;5.448;2023-07-02T11:41:15;7.25;;;3.78;;
81801;SDS011;71199;52.490;5.448;2023-07-02T11:43:41;12.95;;;4.53;;
81801;SDS011;71199;52.490;5.448;2023-07-02T11:46:06;11.35;;;3.67;;
81801;SDS011;71199;52.490;5.448;2023-07-02T11:48:31;9.70;;;3.97;;
81801;SDS011;71199;52.490;5.448;2023-07-02T11:50:57;8.75;;;3.40;;
81801;SDS011;71199;52.490;5.448;2023-07-02T11:53:22;8.73;;;4.07;;
81801;SDS011;71199;52.490;5.448;2023-07-02T11:55:48;12.57;;;3.92;;
81801;SDS011;71199;52.490;5.448;2023-07-02T11:58:14;10.25;;;3.58;;
81801;SDS011;71199;52.490;5.448;2023-07-02T12:00:39;10.55;;;3.95;;
81801;SDS011;71199;52.490;5.448;2023-07-02T12:03:05;9.40;;;4.10;;
81801;SDS011;71199;52.490;5.448;2023-07-02T12:05:30;9.85;;;3.95;;
81801;SDS011;71199;52.490;5.448;2023-07-02T12:08:07;13.48;;;4.30;;
81801;SDS011;71199;52.490;5.448;2023-07-02T12:10:33;13.10;;;4.25;;
81801;SDS011;71199;52.490;5.448;2023-07-02T12:12:59;13.85;;;5.05;;
81801;SDS011;71199;52.490;5.448;2023-07-02T12:15:24;11.60;;;3.80;;
81801;SDS011;71199;52.490;5.448;2023-07-02T12:17:49;10.07;;;4.35;;
81801;SDS011;71199;52.490;5.448;2023-07-02T12:20:15;9.87;;;4.10;;
81801;SDS011;71199;52.490;5.448;2023-07-02T12:22:40;8.90;;;4.23;;
81801;SDS011;71199;52.490;5.448;2023-07-02T12:25:06;7.95;;;3.50;;
81801;SDS011;71199;52.490;5.448;2023-07-02T12:27:31;6.97;;;3.50;;
81801;SDS011;71199;52.490;5.448;2023-07-02T12:29:57;11.07;;;3.40;;
81801;SDS011;71199;52.490;5.448;2023-07-02T12:32:22;7.80;;;3.60;;
81801;SDS011;71199;52.490;5.448;2023-07-02T12:34:47;8.23;;;3.00;;
81801;SDS011;71199;52.490;5.448;2023-07-02T12:37:13;7.78;;;3.75;;
81801;SDS011;71199;52.490;5.448;2023-07-02T12:39:42;8.00;;;3.90;;
81801;SDS011;71199;52.490;5.448;2023-07-02T12:42:07;10.60;;;4.15;;
81801;SDS011;71199;52.490;5.448;2023-07-02T12:44:33;9.38;;;3.85;;
81801;SDS011;71199;52.490;5.448;2023-07-02T12:46:58;8.30;;;3.40;;
81801;SDS011;71199;52.490;5.448;2023-07-02T12:49:23;13.10;;;3.60;;
81801;SDS011;71199;52.490;5.448;2023-07-02T12:51:49;10.13;;;3.50;;
81801;SDS011;71199;52.490;5.448;2023-07-02T12:54:14;8.37;;;4.00;;
81801;SDS011;71199;52.490;5.448;2023-07-02T12:56:40;7.90;;;3.45;;
81801;SDS011;71199;52.490;5.448;2023-07-02T12:59:05;10.50;;;3.70;;
81801;SDS011;71199;52.490;5.448;2023-07-02T13:01:31;8.90;;;3.70;;
81801;SDS011;71199;52.490;5.448;2023-07-02T13:03:56;9.95;;;3.92;;
81801;SDS011;71199;52.490;5.448;2023-07-02T13:06:22;8.80;;;3.30;;
81801;SDS011;71199;52.490;5.448;2023-07-02T13:08:47;10.00;;;3.50;;
81801;SDS011;71199;52.490;5.448;2023-07-02T13:11:12;8.70;;;3.03;;
81801;SDS011;71199;52.490;5.448;2023-07-02T13:13:39;9.88;;;3.10;;
81801;SDS011;71199;52.490;5.448;2023-07-02T13:16:06;9.95;;;3.50;;
81801;SDS011;71199;52.490;5.448;2023-07-02T13:18:31;9.90;;;3.58;;
81801;SDS011;71199;52.490;5.448;2023-07-02T13:20:56;8.23;;;4.10;;
81801;SDS011;71199;52.490;5.448;2023-07-02T13:23:22;9.25;;;3.25;;
81801;SDS011;71199;52.490;5.448;2023-07-02T13:25:47;8.25;;;3.65;;
81801;SDS011;71199;52.490;5.448;2023-07-02T13:28:12;9.73;;;3.65;;
81801;SDS011;71199;52.490;5.448;2023-07-02T13:30:40;8.20;;;3.27;;
81801;SDS011;71199;52.490;5.448;2023-07-02T13:33:06;12.23;;;3.63;;
81801;SDS011;71199;52.490;5.448;2023-07-02T13:35:31;11.77;;;3.57;;
81801;SDS011;71199;52.490;5.448;2023-07-02T13:37:56;6.60;;;3.33;;
81801;SDS011;71199;52.490;5.448;2023-07-02T13:40:24;10.02;;;3.47;;
81801;SDS011;71199;52.490;5.448;2023-07-02T13:42:50;11.52;;;3.45;;
81801;SDS011;71199;52.490;5.448;2023-07-02T13:45:15;9.55;;;3.85;;
81801;SDS011;71199;52.490;5.448;2023-07-02T13:47:41;7.93;;;3.50;;
81801;SDS011;71199;52.490;5.448;2023-07-02T13:50:06;10.23;;;4.00;;
81801;SDS011;71199;52.490;5.448;2023-07-02T13:52:32;8.77;;;3.63;;
81801;SDS011;71199;52.490;5.448;2023-07-02T13:54:57;8.38;;;3.13;;
81801;SDS011;71199;52.490;5.448;2023-07-02T13:57:24;7.07;;;3.60;;
81801;SDS011;71199;52.490;5.448;2023-07-02T13:59:49;8.63;;;3.53;;
81801;SDS011;71199;52.490;5.448;2023-07-02T14:02:14;10.00;;;3.20;;
81801;SDS011;71199;52.490;5.448;2023-07-02T14:04:40;10.57;;;3.63;;
81801;SDS011;71199;52.490;5.448;2023-07-02T14:07:05;7.00;;;3.37;;
81801;SDS011;71199;52.490;5.448;2023-07-02T14:09:31;7.30;;;3.15;;
81801;SDS011;71199;52.490;5.448;2023-07-02T14:11:56;6.27;;;3.03;;
81801;SDS011;71199;52.490;5.448;2023-07-02T14:14:21;8.38;;;3.42;;
81801;SDS011;71199;52.490;5.448;2023-07-02T14:16:47;9.60;;;3.47;;
81801;SDS011;71199;52.490;5.448;2023-07-02T14:19:12;10.73;;;4.03;;
81801;SDS011;71199;52.490;5.448;2023-07-02T14:21:38;8.30;;;3.83;;
81801;SDS011;71199;52.490;5.448;2023-07-02T14:24:03;11.48;;;3.88;;
81801;SDS011;71199;52.490;5.448;2023-07-02T14:26:29;8.77;;;3.60;;
81801;SDS011;71199;52.490;5.448;2023-07-02T14:28:55;9.25;;;3.60;;
81801;SDS011;71199;52.490;5.448;2023-07-02T14:31:20;9.80;;;4.10;;
81801;SDS011;71199;52.490;5.448;2023-07-02T14:33:46;13.73;;;3.75;;
81801;SDS011;71199;52.490;5.448;2023-07-02T14:36:12;6.25;;;3.25;;
81801;SDS011;71199;52.490;5.448;2023-07-02T14:38:37;11.30;;;3.78;;
81801;SDS011;71199;52.490;5.448;2023-07-02T14:41:02;10.57;;;4.30;;
81801;SDS011;71199;52.490;5.448;2023-07-02T14:43:28;12.93;;;3.67;;
81801;SDS011;71199;52.490;5.448;2023-07-02T14:48:22;8.88;;;3.45;;
81801;SDS011;71199;52.490;5.448;2023-07-02T14:50:48;8.15;;;3.67;;
81801;SDS011;71199;52.490;5.448;2023-07-02T14:53:16;8.60;;;3.40;;
81801;SDS011;71199;52.490;5.448;2023-07-02T14:55:42;11.35;;;4.00;;
81801;SDS011;71199;52.490;5.448;2023-07-02T14:58:08;9.23;;;3.03;;
81801;SDS011;71199;52.490;5.448;2023-07-02T15:00:35;7.38;;;3.63;;